Time;durP1;ratioP1;P1;durP2;ratioP2;P2;SDS_P1;SDS_P2;PMS_P1;PMS_P2;Temp;Humidity;BMP_temperature;BMP_pressure;BME280_temperature;BME280_humidity;BME280_pressure;Samples;Min_cycle;Max_cycle;Signal;HPM_P1;HPM_P2
2021/05/04 00:01:03;;;;;;;3.05;2.75;;;;;;;;;;5057717;28;20594;-81
2021/05/04 00:03:30;;;;;;;2.50;2.30;;;;;;;;;;5058402;28;20202;-81
2021/05/04 00:05:57;;;;;;;3.33;2.95;;;;;;;;;;5057939;28;20210;-81
2021/05/04 00:08:24;;;;;;;3.78;3.30;;;;;;;;;;5058179;28;20198;-80
2021/05/04 00:10:52;;;;;;;3.85;3.50;;;;;;;;;;5058141;28;20253;-81
2021/05/04 00:13:19;;;;;;;3.45;3.15;;;;;;;;;;5058740;28;20307;-81
2021/05/04 00:15:45;;;;;;;3.70;3.40;;;;;;;;;;5058115;28;20202;-81
2021/05/04 00:18:12;;;;;;;3.38;3.08;;;;;;;;;;5057181;28;20583;-81
2021/05/04 00:20:40;;;;;;;4.20;3.85;;;;;;;;;;5058272;28;20221;-81
2021/05/04 00:23:07;;;;;;;3.72;3.38;;;;;;;;;;5057708;28;20209;-80
2021/05/04 00:25:34;;;;;;;3.35;2.92;;;;;;;;;;5057957;28;20564;-81
2021/05/04 00:28:01;;;;;;;3.45;3.15;;;;;;;;;;5058281;28;20212;-80
2021/05/04 00:30:28;;;;;;;3.55;3.08;;;;;;;;;;5057765;28;20229;-80
2021/05/04 00:32:55;;;;;;;3.08;2.78;;;;;;;;;;5058043;28;20197;-80
2021/05/04 00:35:22;;;;;;;3.30;2.95;;;;;;;;;;5057897;28;20336;-80
2021/05/04 00:37:49;;;;;;;4.53;3.42;;;;;;;;;;5057907;28;20208;-80
2021/05/04 00:40:16;;;;;;;3.28;2.97;;;;;;;;;;5057601;28;20604;-81
2021/05/04 00:42:43;;;;;;;3.58;3.20;;;;;;;;;;5057123;28;20206;-81
2021/05/04 00:45:12;;;;;;;3.63;3.40;;;;;;;;;;5057267;28;20194;-81
2021/05/04 00:47:38;;;;;;;6.70;3.00;;;;;;;;;;5057177;28;20798;-81
2021/05/04 00:50:07;;;;;;;3.30;2.92;;;;;;;;;;5057388;28;20233;-81
2021/05/04 00:52:34;;;;;;;5.93;3.45;;;;;;;;;;5057799;28;20202;-81
2021/05/04 00:55:01;;;;;;;5.20;3.78;;;;;;;;;;5057189;28;20587;-80
2021/05/04 00:57:28;;;;;;;3.88;3.10;;;;;;;;;;5057118;28;20210;-80
2021/05/04 00:59:56;;;;;;;3.78;3.38;;;;;;;;;;5057176;28;20208;-81
2021/05/04 01:02:23;;;;;;;4.05;3.75;;;;;;;;;;5057981;28;20202;-81
2021/05/04 01:04:50;;;;;;;3.50;3.20;;;;;;;;;;5057477;28;20213;-81
2021/05/04 01:07:17;;;;;;;4.32;3.65;;;;;;;;;;5057387;28;20205;-81
2021/05/04 01:09:45;;;;;;;4.75;4.22;;;;;;;;;;5057081;28;20221;-81
2021/05/04 01:12:12;;;;;;;4.03;3.63;;;;;;;;;;5057372;28;20756;-81
2021/05/04 01:14:39;;;;;;;4.00;3.60;;;;;;;;;;5057180;28;20209;-81
2021/05/04 01:17:07;;;;;;;4.03;3.63;;;;;;;;;;5056943;28;20657;-81
2021/05/04 01:19:34;;;;;;;4.15;3.75;;;;;;;;;;5057447;28;20212;-81
2021/05/04 01:22:02;;;;;;;3.97;3.58;;;;;;;;;;5057306;28;20221;-81
2021/05/04 01:24:29;;;;;;;5.20;4.32;;;;;;;;;;5057114;28;20220;-81
2021/05/04 01:26:58;;;;;;;5.03;4.13;;;;;;;;;;5057320;28;20205;-81
2021/05/04 01:29:26;;;;;;;4.45;3.75;;;;;;;;;;5057279;28;20221;-81
2021/05/04 01:31:53;;;;;;;7.75;4.38;;;;;;;;;;5057535;28;20226;-81
2021/05/04 01:34:20;;;;;;;4.32;3.92;;;;;;;;;;5057428;28;20198;-81
2021/05/04 01:36:48;;;;;;;5.80;4.53;;;;;;;;;;5057137;28;20205;-81
2021/05/04 01:39:15;;;;;;;7.95;5.60;;;;;;;;;;5057192;28;20208;-81
2021/05/04 01:41:43;;;;;;;5.07;3.85;;;;;;;;;;5057182;28;20222;-81
2021/05/04 01:44:10;;;;;;;6.00;4.38;;;;;;;;;;5056736;28;20678;-81
2021/05/04 01:46:37;;;;;;;5.57;4.93;;;;;;;;;;5056498;28;20189;-81
2021/05/04 01:49:07;;;;;;;6.50;4.75;;;;;;;;;;5057054;28;20205;-81
2021/05/04 01:51:35;;;;;;;8.52;4.88;;;;;;;;;;5057821;28;20236;-81
2021/05/04 01:54:02;;;;;;;7.35;4.22;;;;;;;;;;5057430;28;20663;-81
2021/05/04 01:56:29;;;;;;;5.55;4.15;;;;;;;;;;5056769;28;20618;-81
2021/05/04 01:59:01;;;;;;;5.45;4.30;;;;;;;;;;5056185;28;20208;-81
2021/05/04 02:01:28;;;;;;;4.47;3.97;;;;;;;;;;5056373;28;20783;-81
2021/05/04 02:03:54;;;;;;;5.78;4.57;;;;;;;;;;5056491;28;20206;-81
2021/05/04 02:06:21;;;;;;;5.57;4.68;;;;;;;;;;5056791;28;20252;-81
2021/05/04 02:08:48;;;;;;;7.32;4.70;;;;;;;;;;5056060;28;20204;-81
2021/05/04 02:11:15;;;;;;;5.68;4.70;;;;;;;;;;5055703;28;20226;-81
2021/05/04 02:13:43;;;;;;;5.97;4.85;;;;;;;;;;5056649;28;20202;-81
2021/05/04 02:16:10;;;;;;;6.15;4.85;;;;;;;;;;5056193;28;20205;-81
2021/05/04 02:18:37;;;;;;;5.30;4.40;;;;;;;;;;5055154;28;20202;-80
2021/05/04 02:21:04;;;;;;;4.45;3.90;;;;;;;;;;5056233;28;20252;-81
2021/05/04 02:23:32;;;;;;;5.00;3.78;;;;;;;;;;5056293;28;20215;-81
2021/05/04 02:26:00;;;;;;;4.18;3.78;;;;;;;;;;5055781;28;20687;-81
2021/05/04 02:28:27;;;;;;;6.55;4.15;;;;;;;;;;5055917;28;20297;-81
2021/05/04 02:30:54;;;;;;;5.70;5.13;;;;;;;;;;5056017;28;20221;-81
2021/05/04 02:33:21;;;;;;;5.70;5.18;;;;;;;;;;5056466;28;20232;-81
2021/05/04 02:35:48;;;;;;;7.40;5.60;;;;;;;;;;5056396;28;20201;-81
2021/05/04 02:38:15;;;;;;;5.85;4.03;;;;;;;;;;5055493;28;20206;-81
2021/05/04 02:40:42;;;;;;;4.47;3.72;;;;;;;;;;5055862;28;20225;-81
2021/05/04 02:43:08;;;;;;;4.38;3.85;;;;;;;;;;5056038;28;20205;-81
2021/05/04 02:45:35;;;;;;;5.07;3.92;;;;;;;;;;5055955;28;20194;-81
2021/05/04 02:48:03;;;;;;;4.35;3.63;;;;;;;;;;5056192;28;20209;-81
2021/05/04 02:50:30;;;;;;;4.00;3.55;;;;;;;;;;5055526;28;20236;-81
2021/05/04 02:52:57;;;;;;;5.93;3.70;;;;;;;;;;5056373;28;20686;-81
2021/05/04 02:55:24;;;;;;;4.45;3.92;;;;;;;;;;5056691;28;20204;-81
2021/05/04 02:57:51;;;;;;;4.50;4.10;;;;;;;;;;5056566;28;20206;-81
2021/05/04 03:00:20;;;;;;;4.10;3.70;;;;;;;;;;5055790;28;20234;-81
2021/05/04 03:02:46;;;;;;;3.85;3.40;;;;;;;;;;5056210;28;20190;-81
2021/05/04 03:05:14;;;;;;;4.55;3.55;;;;;;;;;;5055711;28;20216;-81
2021/05/04 03:07:41;;;;;;;4.25;3.78;;;;;;;;;;5055851;28;20202;-81
2021/05/04 03:10:09;;;;;;;4.45;3.35;;;;;;;;;;5056043;28;20248;-81
2021/05/04 03:12:36;;;;;;;3.80;3.42;;;;;;;;;;5056418;28;20323;-81
2021/05/04 03:15:03;;;;;;;5.25;4.00;;;;;;;;;;5056247;28;20208;-81
2021/05/04 03:17:30;;;;;;;4.47;3.72;;;;;;;;;;5055256;28;20348;-81
2021/05/04 03:19:57;;;;;;;3.95;3.53;;;;;;;;;;5055743;28;20210;-81
2021/05/04 03:22:25;;;;;;;4.38;3.97;;;;;;;;;;5055489;28;20214;-81
2021/05/04 03:24:51;;;;;;;3.63;3.28;;;;;;;;;;5055707;28;20206;-81
2021/05/04 03:27:18;;;;;;;4.20;3.80;;;;;;;;;;5056031;28;20206;-81
2021/05/04 03:29:45;;;;;;;3.53;3.10;;;;;;;;;;5056294;28;20209;-81
2021/05/04 03:32:12;;;;;;;4.32;3.17;;;;;;;;;;5055776;28;20221;-81
2021/05/04 03:34:39;;;;;;;3.88;3.47;;;;;;;;;;5055430;28;20206;-81
2021/05/04 03:37:05;;;;;;;3.30;2.92;;;;;;;;;;5055259;28;20232;-81
2021/05/04 03:39:33;;;;;;;3.45;3.15;;;;;;;;;;5054699;28;20590;-81
2021/05/04 03:42:00;;;;;;;4.15;3.03;;;;;;;;;;5054461;28;20214;-81
2021/05/04 03:44:27;;;;;;;5.97;4.13;;;;;;;;;;5054860;28;20565;-81
2021/05/04 03:46:53;;;;;;;4.60;3.47;;;;;;;;;;5054568;28;20202;-81
2021/05/04 03:49:20;;;;;;;3.80;2.80;;;;;;;;;;5054836;28;20206;-81
2021/05/04 03:51:47;;;;;;;2.80;2.50;;;;;;;;;;5054454;28;20236;-81
2021/05/04 03:54:14;;;;;;;4.38;2.70;;;;;;;;;;5054594;28;20205;-81
2021/05/04 03:56:42;;;;;;;2.88;2.65;;;;;;;;;;5055173;28;20299;-81
2021/05/04 03:59:08;;;;;;;4.38;3.38;;;;;;;;;;5055292;28;20229;-81
2021/05/04 04:01:36;;;;;;;4.75;2.88;;;;;;;;;;5054573;28;20241;-81
2021/05/04 04:04:03;;;;;;;3.33;3.03;;;;;;;;;;5055371;28;20264;-80
2021/05/04 04:06:30;;;;;;;4.28;3.20;;;;;;;;;;5055265;28;20202;-81
2021/05/04 04:08:57;;;;;;;3.17;2.88;;;;;;;;;;5056397;28;20206;-81
2021/05/04 04:11:24;;;;;;;3.30;3.00;;;;;;;;;;5058801;28;20581;-82
2021/05/04 04:13:51;;;;;;;6.10;2.80;;;;;;;;;;5058971;28;20206;-82
2021/05/04 04:16:18;;;;;;;2.55;2.35;;;;;;;;;;5058186;28;20209;-80
2021/05/04 04:18:45;;;;;;;3.33;2.63;;;;;;;;;;5058681;28;20206;-81
2021/05/04 04:21:12;;;;;;;4.35;3.25;;;;;;;;;;5058999;28;20213;-81
2021/05/04 04:23:38;;;;;;;3.45;2.78;;;;;;;;;;5058187;28;20202;-81
2021/05/04 04:26:05;;;;;;;4.70;3.05;;;;;;;;;;5058501;28;20202;-81
2021/05/04 04:28:32;;;;;;;4.88;2.90;;;;;;;;;;5057855;28;20205;-81
2021/05/04 04:31:00;;;;;;;4.30;3.15;;;;;;;;;;5057569;28;20222;-80
2021/05/04 04:33:27;;;;;;;3.70;2.60;;;;;;;;;;5058437;28;20224;-80
2021/05/04 04:35:55;;;;;;;3.95;2.40;;;;;;;;;;5058373;28;20749;-81
2021/05/04 04:38:24;;;;;;;3.05;2.85;;;;;;;;;;5058259;28;20193;-81
2021/05/04 04:40:51;;;;;;;3.35;2.97;;;;;;;;;;5058130;28;20225;-81
2021/05/04 04:43:18;;;;;;;6.55;2.80;;;;;;;;;;5057450;28;20206;-81
2021/05/04 04:45:45;;;;;;;2.53;2.33;;;;;;;;;;5061030;28;20255;-81
2021/05/04 04:48:12;;;;;;;2.63;2.38;;;;;;;;;;5057798;28;20206;-81
2021/05/04 04:50:39;;;;;;;4.28;2.38;;;;;;;;;;5057758;28;20258;-81
2021/05/04 04:53:06;;;;;;;2.85;2.20;;;;;;;;;;5057704;28;20194;-81
2021/05/04 04:55:34;;;;;;;2.38;2.05;;;;;;;;;;5057696;28;20206;-80
2021/05/04 04:58:00;;;;;;;2.80;2.60;;;;;;;;;;5057590;28;20213;-81
2021/05/04 05:00:27;;;;;;;2.85;1.90;;;;;;;;;;5057783;28;20237;-81
2021/05/04 05:02:54;;;;;;;2.72;2.45;;;;;;;;;;5057934;28;20212;-80
2021/05/04 05:05:22;;;;;;;3.30;2.97;;;;;;;;;;5057850;28;20213;-80
2021/05/04 05:07:49;;;;;;;3.65;2.47;;;;;;;;;;5058587;28;20208;-82
2021/05/04 05:10:16;;;;;;;2.35;2.15;;;;;;;;;;5057939;28;20348;-81
2021/05/04 05:12:42;;;;;;;2.45;2.25;;;;;;;;;;5057487;28;20226;-83
2021/05/04 05:15:11;;;;;;;2.58;2.38;;;;;;;;;;5057444;28;20206;-81
2021/05/04 05:17:38;;;;;;;2.53;2.40;;;;;;;;;;5057983;28;20204;-81
2021/05/04 05:20:06;;;;;;;2.47;2.28;;;;;;;;;;5056971;28;20202;-82
2021/05/04 05:22:34;;;;;;;2.75;2.20;;;;;;;;;;5057844;28;20201;-81
2021/05/04 05:25:01;;;;;;;2.45;2.28;;;;;;;;;;5057850;28;20198;-81
2021/05/04 05:27:30;;;;;;;2.10;1.90;;;;;;;;;;5057933;28;20207;-82
2021/05/04 05:29:57;;;;;;;3.60;2.20;;;;;;;;;;5057182;28;20669;-81
2021/05/04 05:32:24;;;;;;;3.10;2.40;;;;;;;;;;5057462;28;20722;-81
2021/05/04 05:34:51;;;;;;;2.45;2.08;;;;;;;;;;5056817;28;20202;-81
2021/05/04 05:37:18;;;;;;;2.58;2.38;;;;;;;;;;5057100;28;20663;-81
2021/05/04 05:39:45;;;;;;;2.45;2.35;;;;;;;;;;5057103;28;20202;-81
2021/05/04 05:42:13;;;;;;;4.03;2.20;;;;;;;;;;5057281;28;20214;-82
2021/05/04 05:44:40;;;;;;;2.60;2.40;;;;;;;;;;5057547;28;20583;-82
2021/05/04 05:47:07;;;;;;;3.53;2.35;;;;;;;;;;5057166;28;20202;-82
2021/05/04 05:49:34;;;;;;;2.20;2.10;;;;;;;;;;5057037;28;20189;-82
2021/05/04 05:52:01;;;;;;;2.78;2.58;;;;;;;;;;5057295;28;20225;-82
2021/05/04 05:54:30;;;;;;;2.10;2.00;;;;;;;;;;5057434;28;20193;-82
2021/05/04 05:56:58;;;;;;;2.10;1.90;;;;;;;;;;5057271;28;20201;-81
2021/05/04 05:59:25;;;;;;;2.97;2.70;;;;;;;;;;5057468;28;20251;-82
2021/05/04 06:01:52;;;;;;;2.75;2.50;;;;;;;;;;5056550;28;20237;-81
2021/05/04 06:04:19;;;;;;;4.28;2.47;;;;;;;;;;5056850;28;20575;-82
2021/05/04 06:06:46;;;;;;;3.08;2.53;;;;;;;;;;5056267;28;20254;-82
2021/05/04 06:09:13;;;;;;;2.13;1.92;;;;;;;;;;5057219;28;20217;-82
2021/05/04 06:11:40;;;;;;;2.30;2.10;;;;;;;;;;5056709;28;20308;-82
2021/05/04 06:14:07;;;;;;;2.72;2.53;;;;;;;;;;5057173;28;20260;-82
2021/05/04 06:16:34;;;;;;;2.75;2.45;;;;;;;;;;5057097;28;20729;-82
2021/05/04 06:19:01;;;;;;;4.05;2.33;;;;;;;;;;5057238;28;20202;-83
2021/05/04 06:21:28;;;;;;;2.30;2.13;;;;;;;;;;5057076;28;20222;-82
2021/05/04 06:23:55;;;;;;;2.58;2.38;;;;;;;;;;5056823;28;20206;-82
2021/05/04 06:26:22;;;;;;;2.30;2.10;;;;;;;;;;5056463;28;20208;-81
2021/05/04 06:28:50;;;;;;;3.38;1.92;;;;;;;;;;5057447;28;20210;-82
2021/05/04 06:31:19;;;;;;;1.95;1.85;;;;;;;;;;5056254;28;20233;-81
2021/05/04 06:33:47;;;;;;;2.58;2.05;;;;;;;;;;5056734;28;20215;-81
2021/05/04 06:36:14;;;;;;;2.30;2.10;;;;;;;;;;5056993;28;20211;-81
2021/05/04 06:38:41;;;;;;;1.92;1.83;;;;;;;;;;5056971;28;20259;-82
2021/05/04 06:41:08;;;;;;;2.20;2.00;;;;;;;;;;5056712;28;20221;-82
2021/05/04 06:43:35;;;;;;;3.67;2.22;;;;;;;;;;5056501;28;20220;-81
2021/05/04 06:46:04;;;;;;;2.58;2.38;;;;;;;;;;5056888;28;20280;-82
2021/05/04 06:48:32;;;;;;;3.22;2.22;;;;;;;;;;5056527;28;20209;-81
2021/05/04 06:50:58;;;;;;;1.90;1.80;;;;;;;;;;5057091;28;20221;-82
2021/05/04 06:53:25;;;;;;;2.22;2.08;;;;;;;;;;5055227;28;20222;-81
2021/05/04 06:55:53;;;;;;;3.72;2.85;;;;;;;;;;5056367;28;20193;-81
2021/05/04 06:58:20;;;;;;;2.72;1.75;;;;;;;;;;5055908;28;20548;-80
2021/05/04 07:00:47;;;;;;;1.90;1.80;;;;;;;;;;5056081;28;20301;-82
2021/05/04 07:03:14;;;;;;;2.78;1.67;;;;;;;;;;5056061;28;20197;-82
2021/05/04 07:05:41;;;;;;;1.88;1.77;;;;;;;;;;5055489;28;20248;-82
2021/05/04 07:08:09;;;;;;;1.65;1.55;;;;;;;;;;5057188;28;20197;-83
2021/05/04 07:10:35;;;;;;;1.77;1.67;;;;;;;;;;5055954;28;20213;-82
2021/05/04 07:13:02;;;;;;;1.65;1.52;;;;;;;;;;5056076;28;20218;-83
2021/05/04 07:15:29;;;;;;;2.75;1.90;;;;;;;;;;5055982;28;20224;-82
2021/05/04 07:17:56;;;;;;;3.58;2.08;;;;;;;;;;5055991;28;20724;-82
2021/05/04 07:20:23;;;;;;;3.63;1.80;;;;;;;;;;5055632;28;20228;-82
2021/05/04 07:22:54;;;;;;;2.00;1.40;;;;;;;;;;5056610;28;20205;-81
2021/05/04 07:25:21;;;;;;;1.50;1.40;;;;;;;;;;5055995;28;20197;-81
2021/05/04 07:27:52;;;;;;;1.45;1.35;;;;;;;;;;5056078;28;20202;-82
2021/05/04 07:30:19;;;;;;;1.27;1.17;;;;;;;;;;5056112;28;20217;-82
2021/05/04 07:32:46;;;;;;;1.80;1.30;;;;;;;;;;5055643;28;20221;-81
2021/05/04 07:35:13;;;;;;;2.05;1.25;;;;;;;;;;5056063;28;20200;-82
2021/05/04 07:37:41;;;;;;;3.50;1.83;;;;;;;;;;5055906;28;20220;-82
2021/05/04 07:40:10;;;;;;;6.55;1.55;;;;;;;;;;5055445;28;20209;-82
2021/05/04 07:42:37;;;;;;;1.55;1.40;;;;;;;;;;5055319;28;20663;-82
2021/05/04 07:45:06;;;;;;;1.48;1.38;;;;;;;;;;5058780;28;20367;-81
2021/05/04 07:47:32;;;;;;;1.85;1.55;;;;;;;;;;5059460;28;20194;-82
2021/05/04 07:49:59;;;;;;;1.40;1.30;;;;;;;;;;5059607;28;20213;-81
2021/05/04 07:52:26;;;;;;;2.20;1.35;;;;;;;;;;5059170;28;20221;-81
2021/05/04 07:54:54;;;;;;;1.48;1.38;;;;;;;;;;5058908;28;20198;-82
2021/05/04 07:57:22;;;;;;;1.35;1.30;;;;;;;;;;5059669;28;20201;-81
2021/05/04 07:59:51;;;;;;;1.38;1.27;;;;;;;;;;5059697;28;20680;-82
2021/05/04 08:02:18;;;;;;;1.60;1.50;;;;;;;;;;5059451;28;20226;-81
2021/05/04 08:04:45;;;;;;;2.35;1.30;;;;;;;;;;5058781;28;20201;-80
2021/05/04 08:07:12;;;;;;;1.60;1.50;;;;;;;;;;5058874;28;20228;-81
2021/05/04 08:09:40;;;;;;;2.28;1.10;;;;;;;;;;5059068;28;20208;-82
2021/05/04 08:12:08;;;;;;;1.65;1.27;;;;;;;;;;5058658;28;20226;-83
2021/05/04 08:14:36;;;;;;;1.67;1.52;;;;;;;;;;5058575;28;20194;-83
2021/05/04 08:17:10;;;;;;;3.80;1.45;;;;;;;;;;5059075;28;20588;-83
2021/05/04 08:19:37;;;;;;;1.45;1.30;;;;;;;;;;5059663;28;20683;-83
2021/05/04 08:22:03;;;;;;;1.02;1.02;;;;;;;;;;5059146;28;20217;-83
2021/05/04 08:24:30;;;;;;;1.55;1.27;;;;;;;;;;5058697;28;20198;-82
2021/05/04 08:26:57;;;;;;;1.40;1.30;;;;;;;;;;5058813;28;20201;-83
2021/05/04 08:29:24;;;;;;;2.05;1.17;;;;;;;;;;5058410;28;20212;-83
2021/05/04 08:31:51;;;;;;;1.48;1.33;;;;;;;;;;5058493;28;20226;-82
2021/05/04 08:34:21;;;;;;;1.50;1.45;;;;;;;;;;5058564;28;20594;-82
2021/05/04 08:36:48;;;;;;;2.08;1.25;;;;;;;;;;5058739;28;20206;-82
2021/05/04 08:39:15;;;;;;;1.35;1.25;;;;;;;;;;5058591;28;20703;-82
2021/05/04 08:41:43;;;;;;;1.25;1.25;;;;;;;;;;5058733;28;20225;-81
2021/05/04 08:44:16;;;;;;;1.10;1.02;;;;;;;;;;5058321;28;20208;-81
2021/05/04 08:46:43;;;;;;;1.42;1.20;;;;;;;;;;5057675;28;20204;-82
2021/05/04 08:49:14;;;;;;;1.65;1.55;;;;;;;;;;5057951;28;20202;-82
2021/05/04 08:51:43;;;;;;;0.90;0.90;;;;;;;;;;5058640;28;20217;-82
2021/05/04 08:54:11;;;;;;;1.85;1.10;;;;;;;;;;5058835;28;20271;-82
2021/05/04 08:56:40;;;;;;;1.20;1.20;;;;;;;;;;5058926;28;20186;-81
2021/05/04 08:59:08;;;;;;;1.67;1.20;;;;;;;;;;5058538;28;20210;-82
2021/05/04 09:01:35;;;;;;;1.20;0.90;;;;;;;;;;5058273;28;20707;-81
2021/05/04 09:04:05;;;;;;;1.10;1.10;;;;;;;;;;5058464;28;20190;-83
2021/05/04 09:06:38;;;;;;;1.35;1.25;;;;;;;;;;5058047;28;20205;-82
2021/05/04 09:09:11;;;;;;;2.10;1.17;;;;;;;;;;5058491;28;20286;-82
2021/05/04 09:11:56;;;;;;;0.80;0.80;;;;;;;;;;5059245;28;20217;-81
2021/05/04 09:14:37;;;;;;;1.05;1.05;;;;;;;;;;5057624;28;20194;-82
2021/05/04 09:17:16;;;;;;;1.20;1.10;;;;;;;;;;5057809;28;20197;-82
2021/05/04 09:19:58;;;;;;;1.10;1.08;;;;;;;;;;5058650;28;20225;-82
2021/05/04 09:22:37;;;;;;;1.63;0.95;;;;;;;;;;5058347;28;20186;-81
2021/05/04 09:25:06;;;;;;;2.38;1.10;;;;;;;;;;5057830;28;20284;-82
2021/05/04 09:27:33;;;;;;;1.40;1.30;;;;;;;;;;5057608;28;20224;-81
2021/05/04 09:30:01;;;;;;;0.80;0.80;;;;;;;;;;5058198;28;20233;-82
2021/05/04 09:32:32;;;;;;;2.38;1.30;;;;;;;;;;5057856;28;20221;-82
2021/05/04 09:35:01;;;;;;;1.13;1.10;;;;;;;;;;5058137;28;20206;-82
2021/05/04 09:37:32;;;;;;;4.80;1.10;;;;;;;;;;5057684;28;20205;-82
2021/05/04 09:40:20;;;;;;;1.23;1.10;;;;;;;;;;5057131;28;20232;-82
2021/05/04 09:42:49;;;;;;;1.00;0.90;;;;;;;;;;5057465;28;20564;-83
2021/05/04 09:45:24;;;;;;;1.42;0.85;;;;;;;;;;5058111;28;20208;-82
2021/05/04 09:48:17;;;;;;;1.40;0.90;;;;;;;;;;5057960;28;20201;-82
2021/05/04 09:50:57;;;;;;;2.42;1.00;;;;;;;;;;5057305;28;20218;-82
2021/05/04 09:53:33;;;;;;;3.85;0.88;;;;;;;;;;5057048;28;20229;-82
2021/05/04 09:56:02;;;;;;;1.70;1.10;;;;;;;;;;5057184;28;20291;-82
2021/05/04 09:58:41;;;;;;;0.90;0.90;;;;;;;;;;5057569;28;20530;-82
2021/05/04 10:01:11;;;;;;;1.35;1.25;;;;;;;;;;5056319;28;20267;-82
2021/05/04 10:03:39;;;;;;;1.20;1.10;;;;;;;;;;5056832;28;20206;-82
2021/05/04 10:06:08;;;;;;;1.05;1.00;;;;;;;;;;5056531;28;20285;-82
2021/05/04 10:08:36;;;;;;;1.40;0.95;;;;;;;;;;5057616;28;20194;-82
2021/05/04 10:11:06;;;;;;;1.10;0.98;;;;;;;;;;5056802;28;20226;-82
2021/05/04 10:13:35;;;;;;;3.58;1.85;;;;;;;;;;5056615;28;20225;-82
2021/05/04 10:16:02;;;;;;;1.73;1.40;;;;;;;;;;5057314;28;20251;-82
2021/05/04 10:18:30;;;;;;;4.03;2.55;;;;;;;;;;5056792;28;20205;-82
2021/05/04 10:20:59;;;;;;;2.65;1.10;;;;;;;;;;5055663;28;20225;-82
2021/05/04 10:23:28;;;;;;;1.42;1.33;;;;;;;;;;5056166;28;20205;-82
2021/05/04 10:25:59;;;;;;;1.63;1.50;;;;;;;;;;5056855;28;20687;-83
2021/05/04 10:28:32;;;;;;;1.10;1.10;;;;;;;;;;5057210;28;20202;-82
2021/05/04 10:31:01;;;;;;;1.23;1.08;;;;;;;;;;5057220;28;20222;-82
2021/05/04 10:33:34;;;;;;;0.88;0.88;;;;;;;;;;5055957;28;20741;-82
2021/05/04 10:36:02;;;;;;;0.88;0.88;;;;;;;;;;5056006;28;20254;-81
2021/05/04 10:38:53;;;;;;;1.33;1.23;;;;;;;;;;5056251;28;20209;-82
2021/05/04 10:41:21;;;;;;;1.10;1.00;;;;;;;;;;5056298;28;20580;-82
2021/05/04 10:44:00;;;;;;;1.00;0.90;;;;;;;;;;5055983;28;20197;-82
2021/05/04 10:46:38;;;;;;;0.82;0.80;;;;;;;;;;5056719;28;20208;-82
2021/05/04 10:49:06;;;;;;;9.63;1.80;;;;;;;;;;5056318;28;20212;-82
2021/05/04 10:51:45;;;;;;;1.25;1.10;;;;;;;;;;5056128;28;20213;-82
2021/05/04 10:54:13;;;;;;;1.42;1.33;;;;;;;;;;5055624;28;20229;-82
2021/05/04 10:56:43;;;;;;;0.88;0.88;;;;;;;;;;5056113;28;20212;-82
2021/05/04 10:59:13;;;;;;;1.40;1.23;;;;;;;;;;5055997;28;20204;-82
2021/05/04 11:01:41;;;;;;;1.13;1.02;;;;;;;;;;5055767;28;20237;-82
2021/05/04 11:04:08;;;;;;;1.17;1.10;;;;;;;;;;5055891;28;20663;-82
2021/05/04 11:06:48;;;;;;;1.17;1.15;;;;;;;;;;5056059;28;20331;-82
2021/05/04 11:09:20;;;;;;;2.42;1.15;;;;;;;;;;5056463;28;20258;-82
2021/05/04 11:11:51;;;;;;;2.15;1.08;;;;;;;;;;5056130;28;20251;-82
2021/05/04 11:14:28;;;;;;;1.30;1.20;;;;;;;;;;5056042;28;20244;-82
2021/05/04 11:17:22;;;;;;;1.45;1.20;;;;;;;;;;5055991;28;20197;-82
2021/05/04 11:19:48;;;;;;;1.60;1.10;;;;;;;;;;5060425;28;20193;-82
2021/05/04 11:22:24;;;;;;;2.45;1.25;;;;;;;;;;5060264;28;20217;-82
2021/05/04 11:24:57;;;;;;;1.20;1.08;;;;;;;;;;5060377;28;20208;-82
2021/05/04 11:27:33;;;;;;;1.20;1.10;;;;;;;;;;5058453;28;20201;-82
2021/05/04 11:30:03;;;;;;;1.30;1.13;;;;;;;;;;5058491;28;20212;-82
2021/05/04 11:32:43;;;;;;;1.45;1.20;;;;;;;;;;5058855;28;20207;-82
2021/05/04 11:35:11;;;;;;;1.00;1.00;;;;;;;;;;5058838;28;20229;-82
2021/05/04 11:37:45;;;;;;;0.98;0.98;;;;;;;;;;5058563;28;20202;-81
2021/05/04 11:40:23;;;;;;;1.48;1.25;;;;;;;;;;5058005;28;20577;-82
2021/05/04 11:42:52;;;;;;;1.02;1.00;;;;;;;;;;5059022;28;20186;-83
2021/05/04 11:45:23;;;;;;;3.13;1.80;;;;;;;;;;5059312;28;20552;-83
2021/05/04 11:47:52;;;;;;;1.15;1.00;;;;;;;;;;5058399;28;20248;-82
2021/05/04 11:50:22;;;;;;;4.43;1.50;;;;;;;;;;5058495;28;20229;-81
2021/05/04 11:52:51;;;;;;;1.48;1.00;;;;;;;;;;5058344;28;20205;-82
2021/05/04 11:55:21;;;;;;;1.27;0.95;;;;;;;;;;5057420;28;20267;-82
2021/05/04 11:57:50;;;;;;;2.42;1.30;;;;;;;;;;5057796;28;20292;-82
2021/05/04 12:00:21;;;;;;;1.80;1.20;;;;;;;;;;5057578;28;20234;-83
2021/05/04 12:02:48;;;;;;;1.88;1.20;;;;;;;;;;5057989;28;20193;-83
2021/05/04 12:05:23;;;;;;;3.92;1.25;;;;;;;;;;5058067;28;20208;-82
2021/05/04 12:07:50;;;;;;;1.20;1.10;;;;;;;;;;5057694;28;20205;-82
2021/05/04 12:10:30;;;;;;;1.42;1.30;;;;;;;;;;5057811;28;20315;-82
2021/05/04 12:12:59;;;;;;;1.10;1.10;;;;;;;;;;5057953;28;20202;-82
2021/05/04 12:15:29;;;;;;;1.27;1.13;;;;;;;;;;5057743;28;20559;-82
2021/05/04 12:17:59;;;;;;;1.15;1.05;;;;;;;;;;5057764;28;20185;-82
2021/05/04 12:20:28;;;;;;;1.05;0.93;;;;;;;;;;5057524;28;20217;-81
2021/05/04 12:22:56;;;;;;;1.25;1.15;;;;;;;;;;5057327;28;20668;-82
2021/05/04 12:25:28;;;;;;;1.70;1.02;;;;;;;;;;5057593;28;20637;-83
2021/05/04 12:27:56;;;;;;;2.83;1.25;;;;;;;;;;5057484;28;20499;-84
2021/05/04 12:30:25;;;;;;;1.40;1.27;;;;;;;;;;5056736;28;20218;-82
2021/05/04 12:32:54;;;;;;;5.38;1.40;;;;;;;;;;5057543;28;20236;-81
2021/05/04 12:35:27;;;;;;;1.52;1.42;;;;;;;;;;5057291;28;20218;-82
2021/05/04 12:38:12;;;;;;;1.33;1.20;;;;;;;;;;5057420;28;20205;-82
2021/05/04 12:40:41;;;;;;;1.10;1.00;;;;;;;;;;5057201;28;20777;-82
2021/05/04 12:43:17;;;;;;;1.60;1.30;;;;;;;;;;5057082;28;20206;-81
2021/05/04 12:46:24;;;;;;;3.85;1.48;;;;;;;;;;5057444;28;20205;-82
2021/05/04 12:48:54;;;;;;;1.70;1.25;;;;;;;;;;4995427;28;20207;-82
2021/05/04 12:51:27;;;;;;;1.33;1.23;;;;;;;;;;4995682;28;20411;-82
2021/05/04 12:54:10;;;;;;;3.42;1.52;;;;;;;;;;5028142;28;20229;-82
2021/05/04 12:56:38;;;;;;;1.92;1.42;;;;;;;;;;5056850;28;20251;-82
2021/05/04 12:59:07;;;;;;;2.47;1.33;;;;;;;;;;5057118;28;20186;-82
2021/05/04 13:01:43;;;;;;;1.23;1.13;;;;;;;;;;5056531;28;20294;-83
2021/05/04 13:04:27;;;;;;;1.58;1.10;;;;;;;;;;5056186;28;20288;-80
2021/05/04 13:06:58;;;;;;;1.80;1.38;;;;;;;;;;5055625;28;20263;-81
2021/05/04 13:09:31;;;;;;;1.33;1.23;;;;;;;;;;5055193;28;20247;-81
2021/05/04 13:12:12;;;;;;;1.92;1.42;;;;;;;;;;5055930;28;20221;-80
2021/05/04 13:32:02;;;;;;;1.27;1.20;;;;;;;;;;5055109;28;20224;-81
2021/05/04 13:34:34;;;;;;;2.08;1.48;;;;;;;;;;5055482;28;20235;-81
2021/05/04 13:37:03;;;;;;;3.08;1.40;;;;;;;;;;5055740;28;20635;-80
2021/05/04 13:39:58;;;;;;;2.80;1.50;;;;;;;;;;5055365;28;20229;-81
2021/05/04 13:50:49;;;;;;;3.30;1.48;;;;;;;;;;5052623;28;20215;-81
2021/05/04 13:53:17;;;;;;;1.23;1.13;;;;;;;;;;5054691;28;20236;-80
2021/05/04 13:55:44;;;;;;;1.40;1.20;;;;;;;;;;5054770;28;20252;-81
2021/05/04 13:58:13;;;;;;;1.30;1.20;;;;;;;;;;5055080;28;20194;-81
2021/05/04 14:00:47;;;;;;;1.10;1.10;;;;;;;;;;5054665;28;20237;-81
2021/05/04 14:03:23;;;;;;;1.50;1.40;;;;;;;;;;5055034;28;20284;-81
2021/05/04 14:26:06;;;;;;;1.95;1.10;;;;;;;;;;5018802;28;20192;-80
2021/05/04 14:28:33;;;;;;;4.07;1.33;;;;;;;;;;5055686;28;20296;-81
2021/05/04 14:31:00;;;;;;;3.58;1.50;;;;;;;;;;5054904;28;20221;-81
2021/05/04 14:33:26;;;;;;;6.22;1.73;;;;;;;;;;5054612;28;20624;-81
2021/05/04 14:35:58;;;;;;;3.40;1.02;;;;;;;;;;5054407;28;20603;-81
2021/05/04 14:38:30;;;;;;;1.33;1.17;;;;;;;;;;5054458;28;20247;-81
2021/05/04 14:41:17;;;;;;;2.13;1.23;;;;;;;;;;5055357;28;20627;-82
2021/05/04 14:44:05;;;;;;;3.35;1.40;;;;;;;;;;5055577;28;20216;-82
2021/05/04 14:46:54;;;;;;;8.18;1.85;;;;;;;;;;5054916;28;20220;-81
2021/05/04 14:57:54;;;;;;;2.20;1.30;;;;;;;;;;5054557;28;20184;-82
2021/05/04 15:03:12;;;;;;;3.92;1.50;;;;;;;;;;5048644;28;20197;-81
2021/05/04 15:05:39;;;;;;;5.32;1.73;;;;;;;;;;5054353;28;20198;-82
2021/05/04 15:08:06;;;;;;;2.53;1.48;;;;;;;;;;5055317;28;20210;-81
2021/05/04 15:10:32;;;;;;;2.65;1.50;;;;;;;;;;5055346;28;20221;-82
2021/05/04 15:13:03;;;;;;;4.68;1.33;;;;;;;;;;5054466;28;20212;-81
2021/05/04 15:15:39;;;;;;;3.00;1.33;;;;;;;;;;5055205;28;20703;-82
2021/05/04 15:18:11;;;;;;;3.55;1.48;;;;;;;;;;5054881;28;20208;-82
2021/05/04 15:20:58;;;;;;;2.53;1.50;;;;;;;;;;5055376;28;20225;-82
2021/05/04 15:23:25;;;;;;;5.10;1.70;;;;;;;;;;5055433;28;20193;-82
2021/05/04 15:25:55;;;;;;;3.67;1.35;;;;;;;;;;5055258;28;20209;-82
2021/05/04 15:28:23;;;;;;;4.05;1.40;;;;;;;;;;5055365;28;20204;-82
2021/05/04 15:30:50;;;;;;;5.57;1.75;;;;;;;;;;5054971;28;20228;-81
2021/05/04 15:33:18;;;;;;;3.40;1.40;;;;;;;;;;5054745;28;20209;-82
2021/05/04 15:35:45;;;;;;;7.60;1.80;;;;;;;;;;5055258;28;20225;-82
2021/05/04 15:38:12;;;;;;;3.25;1.70;;;;;;;;;;5055654;28;20212;-82
2021/05/04 15:40:39;;;;;;;3.67;1.40;;;;;;;;;;5055005;28;20716;-82
2021/05/04 15:43:09;;;;;;;4.93;1.40;;;;;;;;;;5055098;28;20209;-83
2021/05/04 15:45:53;;;;;;;3.47;1.40;;;;;;;;;;5055734;28;20253;-83
2021/05/04 15:48:25;;;;;;;6.93;1.58;;;;;;;;;;5055035;28;20202;-82
2021/05/04 15:50:57;;;;;;;4.47;1.23;;;;;;;;;;5055019;28;20279;-82
2021/05/04 15:53:42;;;;;;;2.42;1.17;;;;;;;;;;5055383;28;20819;-83